Airfield :







YOU CAN JOIN US ON...

 
LOGIN :

Register | Disclaimer

   EN    FR    IT 

 









Legend :    VFR   Marginal VFR   IFR   Intensive IFR   Very Intensive IFR
Visi :
Ceiling :
>= 8 km
>= 3000ft
5 to 8 km
1000 to 3000 ft
1500m to 5 km
500 to 1000 ft
800 to 1500m
200 to 500 ft
< 800m
< 200 ft
Symbols :   Thunderstorms  Fog  Heavy snow  Heavy precipitations  Wind > 20 kt






- Airport Elevation : 107 ft


KBVY - Beverly Municipal

CURRENT METAR :
  • 261353Z 12005KT 10SM CLR 19/15 A2993 RMK AO2 SLP130 T01890150

EXPIRED METARs :
  • 261253Z VRB03KT 10SM CLR 18/15 A2992 RMK AO2 SLP128 T01780150
  • 261246Z 12003KT 10SM FEW008 18/16 A2992 RMK AO2 T01780156
  • 261153Z 00000KT 10SM CLR 16/15 A2991 RMK AO2 RAE05 SLP124 P0000 60004 70004 T01610150 10167 20150 51014
  • 261053Z 09004KT 8SM -RA FEW045 OVC065 15/14 A2990 RMK AO2 RAB22 SLP121 P0004 T01500139
  • 261046Z AUTO 10004KT 3SM -RA BR FEW043 FEW055 OVC070 16/13 A2990 RMK AO2 RAB22 P0003 T01560133
  • 260953Z AUTO 00000KT 10SM BKN070 OVC090 15/13 A2989 RMK AO2 RAB0854E09 SLP119 P0000 T01500128

TAF N/A
KZBW FIR / North America



MET'MAP, your aeronautical weather chart ! - Copyright ORBIFLY December 2007 - Disclaimer

ORBIFLY MET'MAP TEAM :

Programming & Development : Alexandra Zaïnal
Original concept : Baudouin d'Aumeries
Technical & hardware support : Manuel Goepfert
Assistance : Marc-Olivier Méhu




SOURCES & CREDITS :

   NOAA